createdAt,value
2023-01-05T00:01:27.244Z,0.80
2023-01-05T00:03:54.089Z,0.73
2023-01-05T00:06:21.158Z,0.77
2023-01-05T00:08:48.221Z,0.77
2023-01-05T00:11:37.247Z,0.50
2023-01-05T00:14:23.746Z,0.70
2023-01-05T00:17:09.369Z,0.63
2023-01-05T00:19:54.583Z,0.70
2023-01-05T00:22:38.816Z,0.50
2023-01-05T00:25:13.075Z,0.80
2023-01-05T00:27:45.874Z,0.70
2023-01-05T00:30:15.437Z,0.77
2023-01-05T00:32:43.522Z,0.67
2023-01-05T00:35:11.991Z,0.90
2023-01-05T00:37:39.441Z,1.03
2023-01-05T00:40:08.646Z,1.37
2023-01-05T00:42:35.649Z,1.57
2023-01-05T00:45:03.067Z,1.63
2023-01-05T00:47:30.122Z,1.47
2023-01-05T00:49:56.882Z,1.60
2023-01-05T00:52:23.924Z,1.60
2023-01-05T00:54:50.705Z,1.63
2023-01-05T00:57:17.899Z,1.70
2023-01-05T00:59:44.627Z,1.70
2023-01-05T01:02:11.815Z,1.40
2023-01-05T01:04:38.692Z,1.50
2023-01-05T01:07:06.667Z,1.63
2023-01-05T01:09:34.269Z,1.50
2023-01-05T01:12:01.988Z,1.47
2023-01-05T01:14:29.212Z,1.50
2023-01-05T01:16:56.468Z,1.57
2023-01-05T01:19:25.801Z,1.90
2023-01-05T01:21:53.233Z,1.37
2023-01-05T01:24:23.978Z,1.20
2023-01-05T01:26:51.825Z,1.83
2023-01-05T01:29:18.713Z,1.50
2023-01-05T01:31:50.131Z,1.53
2023-01-05T01:34:17.655Z,1.63
2023-01-05T01:36:45.294Z,1.50
2023-01-05T01:39:14.115Z,1.90
2023-01-05T01:41:45.059Z,1.80
2023-01-05T01:44:49.504Z,1.93
2023-01-05T01:47:34.224Z,2.17
2023-01-05T01:50:14.379Z,2.43
2023-01-05T01:52:43.069Z,1.97
2023-01-05T01:55:10.627Z,2.70
2023-01-05T01:57:39.247Z,2.23
2023-01-05T02:00:09.199Z,2.13
2023-01-05T02:02:52.233Z,1.93
2023-01-05T02:05:28.414Z,1.97
2023-01-05T02:07:55.547Z,1.83
2023-01-05T02:10:51.571Z,2.37
2023-01-05T02:13:37.277Z,2.10
2023-01-05T02:16:23.177Z,2.03
2023-01-05T02:19:05.233Z,2.03
2023-01-05T02:21:41.061Z,2.70
2023-01-05T02:24:41.493Z,1.87
2023-01-05T02:27:27.462Z,1.90
2023-01-05T02:30:16.369Z,1.80
2023-01-05T02:32:57.070Z,3.07
2023-01-05T02:35:42.338Z,2.57
2023-01-05T02:38:18.551Z,2.33
2023-01-05T02:40:49.786Z,2.20
2023-01-05T02:43:21.678Z,2.20
2023-01-05T02:45:49.384Z,2.70
2023-01-05T02:48:16.296Z,2.63
2023-01-05T02:50:47.062Z,2.13
2023-01-05T02:53:13.822Z,1.97
2023-01-05T02:56:24.023Z,2.33
2023-01-05T02:59:14.045Z,2.63
2023-01-05T03:01:54.334Z,1.97
2023-01-05T03:04:28.579Z,2.20
2023-01-05T03:07:05.468Z,2.10
2023-01-05T03:09:37.597Z,2.20
2023-01-05T03:12:39.908Z,1.87
2023-01-05T03:15:20.987Z,2.33
2023-01-05T03:17:52.435Z,2.20
2023-01-05T03:20:24.175Z,1.83
2023-01-05T03:23:15.130Z,1.80
2023-01-05T03:26:00.730Z,2.03
2023-01-05T03:28:57.719Z,1.70
2023-01-05T03:32:07.261Z,1.40
2023-01-05T03:35:36.205Z,1.60
2023-01-05T03:38:17.630Z,1.43
2023-01-05T03:40:46.508Z,2.07
2023-01-05T03:43:14.333Z,1.70
2023-01-05T03:45:50.803Z,1.43
2023-01-05T03:48:22.822Z,1.17
2023-01-05T03:50:50.358Z,1.50
2023-01-05T03:53:19.188Z,1.40
2023-01-05T03:55:46.767Z,1.57
2023-01-05T03:58:14.431Z,1.70
2023-01-05T04:00:45.349Z,1.73
2023-01-05T04:03:14.314Z,1.10
2023-01-05T04:05:41.500Z,1.17
2023-01-05T04:08:08.367Z,1.40
2023-01-05T04:10:36.728Z,1.10
2023-01-05T04:13:04.641Z,1.07
2023-01-05T04:15:32.211Z,1.23
2023-01-05T04:17:59.593Z,1.37
2023-01-05T04:20:26.944Z,1.43
2023-01-05T04:22:54.316Z,1.17
2023-01-05T04:25:23.174Z,1.30
2023-01-05T04:27:49.986Z,1.13
2023-01-05T04:30:18.385Z,1.10
2023-01-05T04:32:45.271Z,1.20
2023-01-05T04:35:15.593Z,1.60
2023-01-05T04:37:44.787Z,1.50
2023-01-05T04:40:12.072Z,1.90
2023-01-05T04:42:47.451Z,1.50
2023-01-05T04:45:14.461Z,1.57
2023-01-05T04:47:41.418Z,1.20
2023-01-05T04:50:10.961Z,1.50
2023-01-05T04:52:38.994Z,1.40
2023-01-05T04:55:07.430Z,1.17
2023-01-05T04:57:35.374Z,1.57
2023-01-05T05:00:03.978Z,1.83
2023-01-05T05:02:32.854Z,1.30
2023-01-05T05:05:01.128Z,1.37
2023-01-05T05:07:27.888Z,1.33
2023-01-05T05:09:55.216Z,1.30
2023-01-05T05:12:22.167Z,1.40
2023-01-05T05:14:52.545Z,1.63
2023-01-05T05:17:19.413Z,1.70
2023-01-05T05:19:46.524Z,1.17
2023-01-05T05:22:13.757Z,1.20
2023-01-05T05:24:41.825Z,1.60
2023-01-05T05:27:09.225Z,1.30
2023-01-05T05:29:36.312Z,1.50
2023-01-05T05:32:03.418Z,1.33
2023-01-05T05:34:30.495Z,1.60
2023-01-05T05:36:57.269Z,1.37
2023-01-05T05:39:24.357Z,1.20
2023-01-05T05:41:51.151Z,1.53
2023-01-05T05:44:18.340Z,1.60
2023-01-05T05:46:45.230Z,1.37
2023-01-05T05:49:12.312Z,1.60
2023-01-05T05:51:39.193Z,1.60
2023-01-05T05:54:06.325Z,1.80
2023-01-05T05:56:33.056Z,1.77
2023-01-05T05:59:01.765Z,1.40
2023-01-05T06:01:29.201Z,1.53
2023-01-05T06:03:56.720Z,1.50
2023-01-05T06:06:23.621Z,1.53
2023-01-05T06:08:51.521Z,1.87
2023-01-05T06:11:19.039Z,2.20
2023-01-05T06:13:46.387Z,2.43
2023-01-05T06:16:13.252Z,2.57
2023-01-05T06:18:40.392Z,1.90
2023-01-05T06:21:07.276Z,2.10
2023-01-05T06:23:34.268Z,1.93
2023-01-05T06:26:01.074Z,1.93
2023-01-05T06:28:28.065Z,2.13
2023-01-05T06:30:54.950Z,2.00
2023-01-05T06:33:22.026Z,2.30
2023-01-05T06:35:48.824Z,2.43
2023-01-05T06:38:16.522Z,2.00
2023-01-05T06:40:44.575Z,2.50
2023-01-05T06:43:12.420Z,2.50
2023-01-05T06:45:39.185Z,3.43
2023-01-05T06:48:06.785Z,2.50
2023-01-05T06:50:33.898Z,3.00
2023-01-05T06:53:01.201Z,3.00
2023-01-05T06:55:28.039Z,2.37
2023-01-05T06:58:00.463Z,3.93
2023-01-05T07:00:28.600Z,3.33
2023-01-05T07:02:55.770Z,4.67
2023-01-05T07:05:24.432Z,3.70
2023-01-05T07:07:51.604Z,4.07
2023-01-05T07:10:18.619Z,3.60
2023-01-05T07:12:45.623Z,4.10
2023-01-05T07:15:12.591Z,4.00
2023-01-05T07:17:39.585Z,3.50
2023-01-05T07:20:06.694Z,3.30
2023-01-05T07:22:33.836Z,3.77
2023-01-05T07:25:00.972Z,3.30
2023-01-05T07:27:28.018Z,3.23
2023-01-05T07:29:54.916Z,4.20
2023-01-05T07:32:21.907Z,3.87
2023-01-05T07:34:55.341Z,3.20
2023-01-05T07:37:25.181Z,2.37
2023-01-05T07:39:52.615Z,2.67
2023-01-05T07:42:19.912Z,2.20
2023-01-05T07:44:48.312Z,2.07
2023-01-05T07:47:15.387Z,2.70
2023-01-05T07:49:42.212Z,1.90
2023-01-05T07:52:09.406Z,2.43
2023-01-05T07:54:36.165Z,2.43
2023-01-05T07:57:03.382Z,2.70
2023-01-05T07:59:30.833Z,2.50
2023-01-05T08:01:58.738Z,2.00
2023-01-05T08:04:25.625Z,2.80
2023-01-05T08:06:52.717Z,2.73
2023-01-05T08:09:38.266Z,3.20
2023-01-05T08:12:05.535Z,3.97
2023-01-05T08:14:32.315Z,4.07
2023-01-05T08:16:59.352Z,4.37
2023-01-05T08:19:26.085Z,5.37
2023-01-05T08:21:53.292Z,3.93
2023-01-05T08:24:20.008Z,3.77
2023-01-05T08:26:50.546Z,4.37
2023-01-05T08:29:17.386Z,5.43
2023-01-05T08:31:44.474Z,4.70
2023-01-05T08:34:11.368Z,4.53
2023-01-05T08:36:38.397Z,4.73
2023-01-05T08:39:05.691Z,4.10
2023-01-05T08:41:35.893Z,4.50
2023-01-05T08:44:06.058Z,4.97
2023-01-05T08:46:35.342Z,4.63
2023-01-05T08:49:04.908Z,4.63
2023-01-05T08:51:32.525Z,4.30
2023-01-05T08:53:59.302Z,4.87
2023-01-05T08:56:27.260Z,4.17
2023-01-05T08:58:59.204Z,4.30
2023-01-05T09:01:26.846Z,4.43
2023-01-05T09:03:54.180Z,4.13
2023-01-05T09:06:21.329Z,4.23
2023-01-05T09:08:48.642Z,3.93
2023-01-05T09:11:19.213Z,3.23
2023-01-05T09:14:04.246Z,2.97
2023-01-05T09:17:05.040Z,3.03
2023-01-05T09:19:21.371Z,3.50
2023-01-05T09:21:48.457Z,2.20
2023-01-05T09:24:15.281Z,2.50
2023-01-05T09:26:42.960Z,2.43
2023-01-05T09:29:11.425Z,2.40
2023-01-05T09:31:40.211Z,2.83
2023-01-05T09:34:07.008Z,2.60
2023-01-05T09:36:34.114Z,1.90
2023-01-05T09:39:00.979Z,2.33
2023-01-05T09:41:36.665Z,2.10
2023-01-05T09:44:36.366Z,2.27
2023-01-05T09:47:15.563Z,2.40
2023-01-05T09:49:42.814Z,2.30
2023-01-05T09:52:11.969Z,1.63
2023-01-05T09:54:40.029Z,2.20
2023-01-05T09:57:16.493Z,1.80
2023-01-05T09:59:55.611Z,1.53
2023-01-05T10:02:22.777Z,2.93
2023-01-05T10:04:50.220Z,1.70
2023-01-05T10:07:27.341Z,2.30
2023-01-05T10:09:57.575Z,2.30
2023-01-05T10:12:50.271Z,1.70
2023-01-05T10:15:19.734Z,2.03
2023-01-05T10:17:47.739Z,1.90
2023-01-05T10:20:34.391Z,2.30
2023-01-05T10:23:12.820Z,2.80
2023-01-05T10:25:46.150Z,1.80
2023-01-05T10:28:41.042Z,2.37
2023-01-05T10:31:22.208Z,2.87
2023-01-05T10:34:16.463Z,2.47
2023-01-05T10:37:11.671Z,2.23
2023-01-05T10:39:56.181Z,2.07
2023-01-05T10:42:40.884Z,2.13
2023-01-05T10:45:11.879Z,2.30
2023-01-05T10:47:40.028Z,1.73
2023-01-05T10:50:29.918Z,1.93
2023-01-05T10:52:58.282Z,2.63
2023-01-05T10:55:27.876Z,2.07
2023-01-05T10:57:54.691Z,1.77
2023-01-05T11:00:38.931Z,1.90
2023-01-05T11:03:08.344Z,1.70
2023-01-05T11:05:38.163Z,2.93
2023-01-05T11:08:18.031Z,2.47
2023-01-05T11:10:55.547Z,1.57
2023-01-05T11:13:37.016Z,2.70
2023-01-05T11:16:14.161Z,1.80
2023-01-05T11:19:04.614Z,2.00
2023-01-05T11:21:44.543Z,2.53
2023-01-05T11:24:23.564Z,1.83
2023-01-05T11:26:56.483Z,1.60
2023-01-05T11:29:23.289Z,1.50
2023-01-05T11:31:55.241Z,1.60
2023-01-05T11:34:45.614Z,1.20
2023-01-05T11:37:12.727Z,1.50
2023-01-05T11:39:47.910Z,1.20
2023-01-05T11:42:36.360Z,1.60
2023-01-05T11:45:07.808Z,1.30
2023-01-05T11:47:43.753Z,1.27
2023-01-05T11:50:14.460Z,2.83
2023-01-05T11:52:54.135Z,2.00
2023-01-05T11:55:21.749Z,1.97
2023-01-05T11:57:55.807Z,2.50
2023-01-05T12:00:31.629Z,1.40
2023-01-05T12:03:29.483Z,1.70
2023-01-05T12:06:05.068Z,1.67
2023-01-05T12:09:01.001Z,1.77
2023-01-05T12:11:36.851Z,1.87
2023-01-05T12:14:31.739Z,1.63
2023-01-05T12:17:07.063Z,1.20
2023-01-05T12:20:15.497Z,1.37
2023-01-05T12:22:58.370Z,1.20
2023-01-05T12:25:42.066Z,1.20
2023-01-05T12:28:40.525Z,1.70
2023-01-05T12:34:16.211Z,1.17
2023-01-05T12:37:01.284Z,1.73
2023-01-05T12:39:39.941Z,1.00
2023-01-05T12:42:34.167Z,1.60
2023-01-05T12:45:34.058Z,1.37
2023-01-05T12:48:38.679Z,0.90
2023-01-05T12:51:12.624Z,1.37
2023-01-05T12:54:07.706Z,1.37
2023-01-05T12:56:44.170Z,1.53
2023-01-05T12:59:23.321Z,1.40
2023-01-05T13:02:03.349Z,1.67
2023-01-05T13:04:46.283Z,1.50
2023-01-05T13:07:33.829Z,1.50
2023-01-05T13:10:05.661Z,2.00
2023-01-05T13:12:34.575Z,1.33
2023-01-05T13:15:16.757Z,1.73
2023-01-05T13:17:49.006Z,2.33
2023-01-05T13:20:43.929Z,3.27
2023-01-05T13:23:25.636Z,2.60
2023-01-05T13:25:58.241Z,3.60
2023-01-05T13:28:28.663Z,3.70
2023-01-05T13:31:25.846Z,3.50
2023-01-05T13:34:14.524Z,3.10
2023-01-05T13:37:04.755Z,1.63
2023-01-05T13:40:09.450Z,2.00
2023-01-05T13:43:10.266Z,1.90
2023-01-05T13:46:01.636Z,1.40
2023-01-05T13:48:44.709Z,1.53
2023-01-05T13:51:57.800Z,1.50
2023-01-05T13:55:02.244Z,1.70
2023-01-05T13:57:38.766Z,1.37
2023-01-05T14:00:22.605Z,1.47
2023-01-05T14:03:07.979Z,2.00
2023-01-05T14:05:50.756Z,2.20
2023-01-05T14:08:20.430Z,2.33
2023-01-05T14:11:16.844Z,2.30
2023-01-05T14:14:05.681Z,1.30
2023-01-05T14:16:35.817Z,1.77
2023-01-05T14:19:36.839Z,1.97
2023-01-05T14:22:18.908Z,2.13
2023-01-05T14:24:48.842Z,2.40
2023-01-05T14:27:24.384Z,1.80
2023-01-05T14:29:53.880Z,2.77
2023-01-05T14:32:27.502Z,1.93
2023-01-05T14:37:29.618Z,2.53
2023-01-05T14:40:04.107Z,2.27
2023-01-05T14:42:43.859Z,2.33
2023-01-05T14:45:31.372Z,3.27
2023-01-05T14:48:05.198Z,4.03
2023-01-05T14:50:41.069Z,4.47
2023-01-05T14:53:20.665Z,4.07
2023-01-05T14:55:53.667Z,3.53
2023-01-05T14:58:35.941Z,4.43
2023-01-05T15:01:18.440Z,3.47
2023-01-05T15:03:55.398Z,3.60
2023-01-05T15:06:27.983Z,3.57
2023-01-05T15:09:33.671Z,4.73
2023-01-05T15:12:10.082Z,4.47
2023-01-05T15:15:16.323Z,3.90
2023-01-05T15:18:21.335Z,3.50
2023-01-05T15:21:10.755Z,3.30
2023-01-05T15:24:05.352Z,3.47
2023-01-05T15:26:54.190Z,3.60
2023-01-05T15:29:45.342Z,3.40
2023-01-05T15:32:23.418Z,2.53
2023-01-05T15:35:25.923Z,3.13
2023-01-05T15:37:53.263Z,3.23
2023-01-05T15:40:22.924Z,3.73
2023-01-05T15:42:52.811Z,5.30
2023-01-05T15:45:30.959Z,4.33
2023-01-05T15:48:06.692Z,5.43
2023-01-05T15:50:55.893Z,5.33
2023-01-05T15:53:35.339Z,3.53
2023-01-05T15:56:02.824Z,3.90
2023-01-05T15:58:33.696Z,4.73
2023-01-05T16:01:03.558Z,3.23
2023-01-05T16:03:38.128Z,3.63
2023-01-05T16:06:17.154Z,4.37
2023-01-05T16:08:47.281Z,4.73
2023-01-05T16:11:23.154Z,5.63
2023-01-05T16:13:54.991Z,3.73
2023-01-05T16:16:53.637Z,4.97
2023-01-05T16:19:37.111Z,5.97
2023-01-05T16:22:12.154Z,6.70
2023-01-05T16:25:00.740Z,6.40
2023-01-05T16:27:28.992Z,6.70
2023-01-05T16:30:32.869Z,5.17
2023-01-05T16:33:11.530Z,5.80
2023-01-05T16:35:52.958Z,6.93
2023-01-05T16:38:30.814Z,6.03
2023-01-05T16:41:05.242Z,7.00
2023-01-05T16:43:39.937Z,5.10
2023-01-05T16:46:18.685Z,5.80
2023-01-05T16:48:50.822Z,7.40
2023-01-05T16:51:21.367Z,6.87
2023-01-05T16:53:50.866Z,8.07
2023-01-05T16:56:19.187Z,7.30
2023-01-05T16:58:46.579Z,6.83
2023-01-05T17:01:13.563Z,7.37
2023-01-05T17:03:42.190Z,7.63
2023-01-05T17:06:28.701Z,6.93
2023-01-05T17:09:01.047Z,5.87
2023-01-05T17:11:38.219Z,5.43
2023-01-05T17:14:07.213Z,3.10
2023-01-05T17:16:34.286Z,2.60
2023-01-05T17:19:02.336Z,2.90
2023-01-05T17:21:31.990Z,2.80
2023-01-05T17:24:00.420Z,2.70
2023-01-05T17:26:36.597Z,3.00
2023-01-05T17:29:04.971Z,3.23
2023-01-05T17:31:32.145Z,2.37
2023-01-05T17:33:58.933Z,2.70
2023-01-05T17:36:32.869Z,3.17
2023-01-05T17:39:00.148Z,3.33
2023-01-05T17:41:27.243Z,3.80
2023-01-05T17:43:54.090Z,3.87
2023-01-05T17:46:24.710Z,3.20
2023-01-05T17:48:51.456Z,2.53
2023-01-05T17:51:18.436Z,2.57
2023-01-05T17:53:45.177Z,2.60
2023-01-05T17:56:12.666Z,3.10
2023-01-05T17:58:39.493Z,2.50
2023-01-05T18:01:06.832Z,2.20
2023-01-05T18:03:33.712Z,2.43
2023-01-05T18:06:01.901Z,1.93
2023-01-05T18:08:28.950Z,2.00
2023-01-05T18:10:56.365Z,2.03
2023-01-05T18:13:23.204Z,2.63
2023-01-05T18:15:52.678Z,2.77
2023-01-05T18:18:21.242Z,2.87
2023-01-05T18:20:51.439Z,3.30
2023-01-05T18:23:20.021Z,3.37
2023-01-05T18:25:48.210Z,3.60
2023-01-05T18:28:15.008Z,3.67
2023-01-05T18:30:42.664Z,3.00
2023-01-05T18:33:09.807Z,3.33
2023-01-05T18:35:43.448Z,2.73
2023-01-05T18:38:10.877Z,2.80
2023-01-05T18:40:38.410Z,2.67
2023-01-05T18:43:05.254Z,2.30
2023-01-05T18:45:38.899Z,2.57
2023-01-05T18:48:06.518Z,2.10
2023-01-05T18:50:33.571Z,2.10
2023-01-05T18:53:00.714Z,2.37
2023-01-05T18:55:27.873Z,2.90
2023-01-05T18:57:54.704Z,2.90
2023-01-05T19:00:21.807Z,2.30
2023-01-05T19:02:48.805Z,2.47
2023-01-05T19:05:16.188Z,2.60
2023-01-05T19:07:42.955Z,2.10
2023-01-05T19:10:09.988Z,2.23
2023-01-05T19:12:37.087Z,2.70
2023-01-05T19:15:04.475Z,2.17
2023-01-05T19:17:33.599Z,2.00
2023-01-05T19:20:00.773Z,2.30
2023-01-05T19:22:27.854Z,2.07
2023-01-05T19:24:54.936Z,1.67
2023-01-05T19:27:21.835Z,1.40
2023-01-05T19:29:48.817Z,2.23
2023-01-05T19:32:15.546Z,1.63
2023-01-05T19:34:42.587Z,1.55
2023-01-05T19:37:09.401Z,1.53
2023-01-05T19:39:36.441Z,1.40
2023-01-05T19:42:03.353Z,2.00
2023-01-05T19:44:30.408Z,3.83
2023-01-05T19:46:57.269Z,5.80
2023-01-05T19:49:26.550Z,7.23
2023-01-05T19:51:54.441Z,6.17
2023-01-05T19:54:22.807Z,4.07
2023-01-05T19:56:49.643Z,2.20
2023-01-05T19:59:22.757Z,2.10
2023-01-05T20:01:49.665Z,1.93
2023-01-05T20:04:17.003Z,1.70
2023-01-05T20:06:45.559Z,1.30
2023-01-05T20:09:16.624Z,1.50
2023-01-05T20:11:45.810Z,1.73
2023-01-05T20:14:19.286Z,1.50
2023-01-05T20:16:56.377Z,1.40
2023-01-05T20:19:26.776Z,2.20
2023-01-05T20:21:55.924Z,2.07
2023-01-05T20:24:28.632Z,2.40
2023-01-05T20:26:58.844Z,1.63
2023-01-05T20:29:27.347Z,2.00
2023-01-05T20:32:00.637Z,2.77
2023-01-05T20:34:32.290Z,2.33
2023-01-05T20:37:01.777Z,2.87
2023-01-05T20:39:28.841Z,2.53
2023-01-05T20:41:56.023Z,2.77
2023-01-05T20:44:26.166Z,2.03
2023-01-05T20:46:54.454Z,2.20
2023-01-05T20:49:22.872Z,1.90
2023-01-05T20:51:49.815Z,1.70
2023-01-05T20:54:17.080Z,2.03
2023-01-05T20:56:46.497Z,2.00
2023-01-05T20:59:17.176Z,2.77
2023-01-05T21:01:44.887Z,3.00
2023-01-05T21:04:13.005Z,2.20
2023-01-05T21:06:40.089Z,3.03
2023-01-05T21:09:08.340Z,2.33
2023-01-05T21:11:36.180Z,2.83
2023-01-05T21:14:06.187Z,2.07
2023-01-05T21:16:38.091Z,1.87
2023-01-05T21:19:07.057Z,1.80
2023-01-05T21:21:34.512Z,1.80
2023-01-05T21:24:02.458Z,2.17
2023-01-05T21:26:29.748Z,1.97
2023-01-05T21:28:56.768Z,2.00
2023-01-05T21:31:26.147Z,1.97
2023-01-05T21:33:54.339Z,2.03
2023-01-05T21:36:27.822Z,1.93
2023-01-05T21:39:03.929Z,2.07
2023-01-05T21:41:51.313Z,2.67
2023-01-05T21:44:19.938Z,2.30
2023-01-05T21:46:48.313Z,3.00
2023-01-05T21:49:16.860Z,2.60
2023-01-05T21:52:02.346Z,2.90
2023-01-05T21:54:48.636Z,2.70
2023-01-05T21:57:16.112Z,3.20
2023-01-05T21:59:43.493Z,2.87
2023-01-05T22:02:11.121Z,3.13
2023-01-05T22:04:38.323Z,3.00
2023-01-05T22:07:07.956Z,3.17
2023-01-05T22:09:36.121Z,2.60
2023-01-05T22:12:07.146Z,2.27
2023-01-05T22:14:35.453Z,2.50
2023-01-05T22:17:02.369Z,2.73
2023-01-05T22:19:29.517Z,2.50
2023-01-05T22:21:56.345Z,3.20
2023-01-05T22:24:23.471Z,2.50
2023-01-05T22:26:50.280Z,2.20
2023-01-05T22:29:18.881Z,2.23
2023-01-05T22:31:45.906Z,2.80
2023-01-05T22:34:13.197Z,2.43
2023-01-05T22:36:40.044Z,2.67
2023-01-05T22:39:07.327Z,2.50
2023-01-05T22:41:34.520Z,2.37
2023-01-05T22:44:02.593Z,2.43
2023-01-05T22:46:30.600Z,2.80
2023-01-05T22:48:58.879Z,3.03
2023-01-05T22:51:31.616Z,3.50
2023-01-05T22:53:59.678Z,3.03
2023-01-05T22:56:29.312Z,3.20
2023-01-05T22:58:57.407Z,3.00
2023-01-05T23:01:29.967Z,3.37
2023-01-05T23:03:58.771Z,3.70
2023-01-05T23:06:27.007Z,3.40
2023-01-05T23:08:55.387Z,3.20
2023-01-05T23:11:25.773Z,2.80
2023-01-05T23:13:53.801Z,3.03
2023-01-05T23:16:22.694Z,2.90
2023-01-05T23:18:50.183Z,2.40
2023-01-05T23:21:19.021Z,2.13
2023-01-05T23:23:46.827Z,2.50
2023-01-05T23:26:15.811Z,2.10
2023-01-05T23:28:44.311Z,2.27
2023-01-05T23:31:14.419Z,2.80
2023-01-05T23:33:42.861Z,1.77
2023-01-05T23:36:11.355Z,2.00
2023-01-05T23:38:39.372Z,2.53
2023-01-05T23:41:08.428Z,2.40
2023-01-05T23:43:38.337Z,2.23
2023-01-05T23:46:07.938Z,1.90
2023-01-05T23:48:36.123Z,2.13
2023-01-05T23:51:04.835Z,2.17
2023-01-05T23:53:31.913Z,2.47
2023-01-05T23:56:13.770Z,2.50
2023-01-05T23:58:42.342Z,2.50
